createdAt,value
2023-03-15T00:02:41.332Z,97329.00
2023-03-15T00:06:42.781Z,97337.00
2023-03-15T00:10:46.422Z,97350.00
2023-03-15T00:14:47.407Z,97344.00
2023-03-15T00:18:48.661Z,97351.00
2023-03-15T00:22:49.635Z,97354.00
2023-03-15T00:26:50.657Z,97353.00
2023-03-15T00:31:12.564Z,97396.00
2023-03-15T00:35:14.189Z,97359.00
2023-03-15T00:39:15.473Z,97355.00
2023-03-15T00:43:17.251Z,97360.00
2023-03-15T00:47:18.254Z,97363.00
2023-03-15T00:51:21.790Z,97381.00
2023-03-15T00:55:22.994Z,97373.00
2023-03-15T00:59:24.148Z,97382.00
2023-03-15T01:03:25.161Z,97382.00
2023-03-15T01:07:26.151Z,97385.00
2023-03-15T01:11:27.940Z,97380.00
2023-03-15T01:15:29.279Z,97388.00
2023-03-15T01:19:30.405Z,97393.00
2023-03-15T01:23:31.615Z,97399.00
2023-03-15T01:27:32.796Z,97400.00
2023-03-15T01:31:33.899Z,97403.00
2023-03-15T01:35:35.015Z,97390.00
2023-03-15T01:39:36.021Z,97389.00
2023-03-15T01:43:37.187Z,97396.00
2023-03-15T01:47:38.447Z,97405.00
2023-03-15T01:51:52.238Z,97415.00
2023-03-15T01:55:54.365Z,97421.00
2023-03-15T01:59:59.348Z,97423.00
2023-03-15T02:04:04.302Z,97414.00
2023-03-15T02:08:08.110Z,97423.00
2023-03-15T02:12:11.477Z,97415.00
2023-03-15T02:16:12.869Z,97403.00
2023-03-15T02:20:26.692Z,97411.00
2023-03-15T02:24:42.472Z,97405.00
2023-03-15T02:28:43.839Z,97416.00
2023-03-15T02:32:45.144Z,97151.00
2023-03-15T02:36:46.158Z,97419.00
2023-03-15T02:40:47.838Z,97410.00
2023-03-15T02:44:50.947Z,97413.00
2023-03-15T02:48:53.533Z,97415.00
2023-03-15T02:52:54.494Z,97416.00
2023-03-15T02:56:55.501Z,97424.00
2023-03-15T03:00:56.492Z,97414.00
2023-03-15T03:04:57.424Z,97427.00
2023-03-15T03:08:58.385Z,97428.00
2023-03-15T03:12:59.359Z,97434.00
2023-03-15T03:17:00.965Z,97448.00
2023-03-15T03:21:06.805Z,97457.00
2023-03-15T03:25:11.825Z,97463.00
2023-03-15T03:29:15.537Z,97449.00
2023-03-15T03:33:16.499Z,97464.00
2023-03-15T03:37:18.831Z,97462.00
2023-03-15T03:41:20.771Z,97461.00
2023-03-15T03:45:21.866Z,97478.00
2023-03-15T03:49:23.085Z,97483.00
2023-03-15T03:53:24.236Z,97480.00
2023-03-15T03:57:25.347Z,97481.00
2023-03-15T04:01:26.654Z,97480.00
2023-03-15T04:05:28.497Z,97484.00
2023-03-15T04:09:29.895Z,97499.00
2023-03-15T04:13:31.000Z,97499.00
2023-03-15T04:17:32.074Z,97495.00
2023-03-15T04:21:33.864Z,97493.00
2023-03-15T04:25:34.814Z,97495.00
2023-03-15T04:29:35.908Z,97503.00
2023-03-15T04:33:36.916Z,97493.00
2023-03-15T04:37:38.059Z,97510.00
2023-03-15T04:41:39.204Z,97517.00
2023-03-15T04:45:40.210Z,97517.00
2023-03-15T04:49:41.156Z,97521.00
2023-03-15T04:53:42.397Z,97512.00
2023-03-15T04:57:43.330Z,97518.00
2023-03-15T05:01:44.471Z,97528.00
2023-03-15T05:05:45.524Z,97533.00
2023-03-15T05:09:47.356Z,97533.00
2023-03-15T05:13:48.462Z,97526.00
2023-03-15T05:17:49.414Z,97534.00
2023-03-15T05:21:50.391Z,97548.00
2023-03-15T05:25:53.338Z,97534.00
2023-03-15T05:29:54.354Z,97542.00
2023-03-15T05:33:55.432Z,97432.00
2023-03-15T05:37:56.366Z,97541.00
2023-03-15T05:41:57.390Z,97531.00
2023-03-15T05:45:58.407Z,97542.00
2023-03-15T05:49:59.463Z,97535.00
2023-03-15T05:54:00.409Z,97549.00
2023-03-15T05:58:01.429Z,97549.00
2023-03-15T06:02:03.317Z,97557.00
2023-03-15T06:06:04.614Z,97563.00
2023-03-15T06:10:06.635Z,97566.00
2023-03-15T06:14:07.770Z,97575.00
2023-03-15T06:18:09.152Z,97575.00
2023-03-15T06:22:10.408Z,97578.00
2023-03-15T06:26:11.510Z,97578.00
2023-03-15T06:30:15.382Z,97587.00
2023-03-15T06:34:16.761Z,97591.00
2023-03-15T06:38:17.913Z,97592.00
2023-03-15T06:42:19.284Z,97586.00
2023-03-15T06:46:20.359Z,97598.00
2023-03-15T06:50:21.538Z,97593.00
2023-03-15T06:54:23.310Z,97604.00
2023-03-15T06:58:24.456Z,97611.00
2023-03-15T07:02:25.636Z,97613.00
2023-03-15T07:06:27.809Z,97613.00
2023-03-15T07:10:28.942Z,97609.00
2023-03-15T07:14:29.925Z,97604.00
2023-03-15T07:18:33.846Z,97614.00
2023-03-15T07:22:35.061Z,97615.00
2023-03-15T07:26:36.057Z,97629.00
2023-03-15T07:30:37.312Z,97639.00
2023-03-15T07:34:38.318Z,97652.00
2023-03-15T07:38:41.367Z,97656.00
2023-03-15T07:42:42.904Z,97651.00
2023-03-15T07:46:44.107Z,97656.00
2023-03-15T07:50:46.022Z,97662.00
2023-03-15T07:54:47.196Z,97663.00
2023-03-15T07:58:48.296Z,97666.00
2023-03-15T08:02:50.044Z,97674.00
2023-03-15T08:06:51.088Z,97675.00
2023-03-15T08:10:52.275Z,97685.00
2023-03-15T08:14:53.706Z,97687.00
2023-03-15T08:18:54.734Z,97694.00
2023-03-15T08:22:55.800Z,97695.00
2023-03-15T08:26:56.835Z,97701.00
2023-03-15T08:30:58.061Z,97732.00
2023-03-15T08:34:59.270Z,97722.00
2023-03-15T08:39:00.576Z,97727.00
2023-03-15T08:43:01.876Z,97742.00
2023-03-15T08:47:04.520Z,97746.00
2023-03-15T08:51:06.532Z,97753.00
2023-03-15T08:55:08.480Z,97772.00
2023-03-15T08:59:12.775Z,97768.00
2023-03-15T09:03:14.173Z,97684.00
2023-03-15T09:07:15.326Z,97788.00
2023-03-15T09:11:16.544Z,97785.00
2023-03-15T09:15:18.918Z,97788.00
2023-03-15T09:19:20.096Z,97794.00
2023-03-15T09:23:21.435Z,97803.00
2023-03-15T09:27:22.611Z,97807.00
2023-03-15T09:31:24.494Z,97803.00
2023-03-15T09:35:26.440Z,97810.00
2023-03-15T09:39:27.453Z,97825.00
2023-03-15T09:43:44.476Z,97825.00
2023-03-15T09:47:52.254Z,97827.00
2023-03-15T09:52:00.245Z,97835.00
2023-03-15T09:56:01.466Z,97835.00
2023-03-15T10:00:06.966Z,97757.00
2023-03-15T10:04:24.306Z,97847.00
2023-03-15T10:08:26.299Z,97846.00
2023-03-15T10:12:30.696Z,97848.00
2023-03-15T10:16:44.952Z,97853.00
2023-03-15T10:20:50.129Z,97864.00
2023-03-15T10:25:13.464Z,97863.00
2023-03-15T10:29:17.943Z,97863.00
2023-03-15T10:33:37.413Z,97852.00
2023-03-15T10:37:38.580Z,97853.00
2023-03-15T10:41:45.603Z,97852.00
2023-03-15T10:46:05.631Z,97853.00
2023-03-15T10:50:08.638Z,97851.00
2023-03-15T10:54:16.649Z,97847.00
2023-03-15T10:58:21.344Z,97847.00
2023-03-15T11:02:24.561Z,97861.00
2023-03-15T11:06:28.456Z,97867.00
2023-03-15T11:10:33.243Z,97869.00
2023-03-15T11:14:43.103Z,97882.00
2023-03-15T11:18:57.304Z,97880.00
2023-03-15T11:23:00.067Z,97896.00
2023-03-15T11:27:04.464Z,97890.00
2023-03-15T11:31:06.057Z,97889.00
2023-03-15T11:35:23.183Z,97901.00
2023-03-15T11:39:36.925Z,97898.00
2023-03-15T11:43:44.510Z,97895.00
2023-03-15T11:47:52.410Z,97902.00
2023-03-15T11:51:55.634Z,97909.00
2023-03-15T11:55:58.010Z,97905.00
2023-03-15T12:00:19.521Z,97908.00
2023-03-15T12:04:30.550Z,97922.00
2023-03-15T12:08:53.178Z,97915.00
2023-03-15T12:12:58.061Z,97910.00
2023-03-15T12:17:27.962Z,97920.00
2023-03-15T12:21:35.712Z,97924.00
2023-03-15T12:25:54.123Z,97931.00
2023-03-15T12:29:50.373Z,97942.00
2023-03-15T12:33:58.024Z,97945.00
2023-03-15T12:42:14.671Z,97929.00
2023-03-15T12:46:42.656Z,97929.00
2023-03-15T12:50:47.624Z,97712.00
2023-03-15T12:54:55.412Z,97943.00
2023-03-15T12:59:01.553Z,97934.00
2023-03-15T13:03:21.478Z,97942.00
2023-03-15T13:07:30.528Z,97948.00
2023-03-15T13:12:07.634Z,97942.00
2023-03-15T13:16:28.062Z,97943.00
2023-03-15T13:20:41.985Z,97930.00
2023-03-15T13:25:12.761Z,97944.00
2023-03-15T13:29:20.426Z,97944.00
2023-03-15T13:33:27.452Z,97949.00
2023-03-15T13:37:31.387Z,97944.00
2023-03-15T13:41:32.390Z,97952.00
2023-03-15T13:45:37.130Z,97943.00
2023-03-15T13:49:38.470Z,97661.00
2023-03-15T13:53:49.606Z,97936.00
2023-03-15T13:57:43.144Z,97939.00
2023-03-15T14:01:44.283Z,97971.00
2023-03-15T14:05:47.885Z,97946.00
2023-03-15T14:09:49.043Z,97966.00
2023-03-15T14:13:58.786Z,97948.00
2023-03-15T14:18:12.740Z,97951.00
2023-03-15T14:22:16.953Z,97945.00
2023-03-15T14:26:21.752Z,97951.00
2023-03-15T14:30:24.878Z,97936.00
2023-03-15T14:34:38.737Z,97951.00
2023-03-15T14:38:40.453Z,97961.00
2023-03-15T14:42:43.062Z,97962.00
2023-03-15T14:46:44.122Z,97963.00
2023-03-15T14:50:45.446Z,97966.00
2023-03-15T14:54:49.272Z,97969.00
2023-03-15T14:58:52.273Z,97974.00
2023-03-15T15:02:55.360Z,98002.00
2023-03-15T15:06:57.382Z,97980.00
2023-03-15T15:10:59.256Z,97989.00
2023-03-15T15:15:00.221Z,97986.00
2023-03-15T15:19:01.307Z,97992.00
2023-03-15T15:23:02.851Z,97991.00
2023-03-15T15:27:04.258Z,98003.00
2023-03-15T15:31:06.616Z,97998.00
2023-03-15T15:35:08.491Z,97997.00
2023-03-15T15:39:25.673Z,98004.00
2023-03-15T15:43:26.705Z,98018.00
2023-03-15T15:47:27.811Z,98006.00
2023-03-15T15:51:33.383Z,98009.00
2023-03-15T15:55:36.343Z,98016.00
2023-03-15T15:59:37.480Z,98021.00
2023-03-15T16:03:38.983Z,98033.00
2023-03-15T16:07:40.596Z,98021.00
2023-03-15T16:11:42.246Z,97867.00
2023-03-15T16:15:43.508Z,98021.00
2023-03-15T16:19:44.663Z,98026.00
2023-03-15T16:23:49.655Z,98018.00
2023-03-15T16:27:52.164Z,98022.00
2023-03-15T16:31:53.783Z,98027.00
2023-03-15T16:35:55.853Z,98056.00
2023-03-15T16:40:00.893Z,98026.00
2023-03-15T16:44:02.080Z,98035.00
2023-03-15T16:48:03.648Z,98029.00
2023-03-15T16:52:07.408Z,98033.00
2023-03-15T16:56:11.684Z,98038.00
2023-03-15T17:00:16.645Z,98051.00
2023-03-15T17:04:17.759Z,98044.00
2023-03-15T17:08:20.427Z,98049.00
2023-03-15T17:12:25.265Z,98078.00
2023-03-15T17:16:26.946Z,98051.00
2023-03-15T17:20:28.964Z,98064.00
2023-03-15T17:24:31.543Z,98074.00
2023-03-15T17:28:32.781Z,98061.00
2023-03-15T17:32:34.141Z,98069.00
2023-03-15T17:36:37.789Z,98072.00
2023-03-15T17:40:39.375Z,98077.00
2023-03-15T17:44:41.367Z,98073.00
2023-03-15T17:48:42.722Z,98082.00
2023-03-15T17:52:45.942Z,98082.00
2023-03-15T17:56:47.093Z,98085.00
2023-03-15T18:00:50.777Z,98084.00
2023-03-15T18:04:52.311Z,98092.00
2023-03-15T18:08:53.751Z,98092.00
2023-03-15T18:12:54.910Z,98092.00
2023-03-15T18:16:56.503Z,98100.00
2023-03-15T18:20:57.636Z,98102.00
2023-03-15T18:24:59.413Z,98119.00
2023-03-15T18:29:01.388Z,98118.00
2023-03-15T18:33:04.479Z,98124.00
2023-03-15T18:37:05.537Z,98134.00
2023-03-15T18:41:20.665Z,98131.00
2023-03-15T18:45:28.604Z,98133.00
2023-03-15T18:49:29.804Z,98133.00
2023-03-15T18:53:31.127Z,98142.00
2023-03-15T18:57:32.146Z,98134.00
2023-03-15T19:01:33.883Z,98140.00
2023-03-15T19:05:36.673Z,98146.00
2023-03-15T19:09:37.898Z,98141.00
2023-03-15T19:13:39.161Z,98151.00
2023-03-15T19:17:41.599Z,98150.00
2023-03-15T19:21:42.784Z,98158.00
2023-03-15T19:25:44.719Z,98160.00
2023-03-15T19:29:46.075Z,98159.00
2023-03-15T19:33:47.340Z,98161.00
2023-03-15T19:37:48.650Z,98162.00
2023-03-15T19:41:49.930Z,98164.00
2023-03-15T19:45:51.540Z,98167.00
2023-03-15T19:49:54.321Z,98172.00
2023-03-15T19:53:56.051Z,98179.00
2023-03-15T19:57:57.425Z,98181.00
2023-03-15T20:01:58.785Z,98182.00
2023-03-15T20:06:04.980Z,98173.00
2023-03-15T20:10:08.362Z,98173.00
2023-03-15T20:14:09.548Z,98182.00
2023-03-15T20:18:12.780Z,98178.00
2023-03-15T20:22:14.546Z,98182.00
2023-03-15T20:26:17.520Z,98180.00
2023-03-15T20:30:20.854Z,98187.00
2023-03-15T20:34:22.294Z,98192.00
2023-03-15T20:38:23.513Z,98190.00
2023-03-15T20:42:24.627Z,98187.00
2023-03-15T20:46:25.904Z,98205.00
2023-03-15T20:50:26.847Z,98193.00
2023-03-15T20:54:28.015Z,98200.00
2023-03-15T20:58:29.543Z,98201.00
2023-03-15T21:02:31.032Z,98215.00
2023-03-15T21:06:32.898Z,98217.00
2023-03-15T21:10:33.904Z,98208.00
2023-03-15T21:14:35.168Z,98214.00
2023-03-15T21:18:37.153Z,98209.00
2023-03-15T21:22:38.078Z,98209.00
2023-03-15T21:26:39.201Z,98192.00
2023-03-15T21:30:40.434Z,98207.00
2023-03-15T21:34:41.394Z,98198.00
2023-03-15T21:38:42.545Z,98209.00
2023-03-15T21:42:45.450Z,98216.00
2023-03-15T21:46:46.587Z,98228.00
2023-03-15T21:50:51.131Z,98218.00
2023-03-15T21:54:53.435Z,98209.00
2023-03-15T21:58:55.105Z,97859.00
2023-03-15T22:02:56.274Z,98201.00
2023-03-15T22:06:57.383Z,98197.00
2023-03-15T22:10:58.722Z,98195.00
2023-03-15T22:15:05.627Z,98200.00
2023-03-15T22:19:03.323Z,98187.00
2023-03-15T22:23:04.928Z,98186.00
2023-03-15T22:27:06.172Z,98188.00
2023-03-15T22:31:10.919Z,98193.00
2023-03-15T22:35:13.330Z,98177.00
2023-03-15T22:39:14.526Z,98187.00
2023-03-15T22:43:15.942Z,98188.00
2023-03-15T22:47:16.890Z,98193.00
2023-03-15T22:51:17.988Z,98185.00
2023-03-15T22:55:20.214Z,98238.00
2023-03-15T22:59:23.261Z,98182.00
2023-03-15T23:03:25.612Z,98183.00
2023-03-15T23:07:26.577Z,98186.00
2023-03-15T23:11:27.816Z,98192.00
2023-03-15T23:15:28.898Z,98182.00
2023-03-15T23:19:34.653Z,98189.00
2023-03-15T23:23:38.177Z,98193.00
2023-03-15T23:27:39.940Z,98183.00
2023-03-15T23:31:42.359Z,98195.00
2023-03-15T23:35:43.650Z,98190.00
2023-03-15T23:39:45.198Z,98197.00
2023-03-15T23:43:46.273Z,98202.00
2023-03-15T23:47:47.236Z,98198.00
2023-03-15T23:51:48.275Z,98196.00
2023-03-15T23:55:50.605Z,98201.00
2023-03-15T23:59:52.143Z,98202.00
